Terminal Aerodrome Forecast
Issued by NWS Goodland, KS

Home | Current Version | Previous Version | Text Only | Print | Product List | Glossary On
Versions: 1 2 3 4 5 6 7 8 9 10 11 12 13 14 15 16
000
FTUS43 KGLD 300400 AAA
TAFGLD
TAF AMD
KGLD 300440Z 3005/3024 18010G17KT P6SM -TSRA BKN020CB
     FM301000 09008KT 4SM -SHRA BR OVC007
     FM301600 08005KT P6SM BKN015
     FM301800 09005KT P6SM -TSRA BKN050CB=

USA.gov is the U.S. government's official web portal to all federal, state and local government web resources and services.